WJA224 CYYC-CYWG
Flight info
| Callsign | WJA224 |
|---|---|
| Flight time | N/A |
| Altitude | 35000 |
| Route | LOMLO Q961 DAPOP DCT DURUR DCT SEGAP BEFAN5 |
| Aircraft | B737/M-SDE2E3FGHIRWXY/LB1 |
Departure
| Time | 2026-05-05 01:10 |
|---|---|
| Airport | Calgary International Airport (CYYC) |
Arrival
| Time | N/A |
|---|---|
| Airport | Winnipeg / James Armstrong Richardson International Airport (CYWG) |
| Time | Latitude | Longitude | Altitude | Speed | Heading |
|---|---|---|---|---|---|
| 2026-05-05 00:41 | 51.12958 | -114.00570 | 3558 ft | 0 kts | 70° |
| 2026-05-05 00:56 | 51.12953 | -114.00589 | 3558 ft | 4 kts | 68° |
| 2026-05-05 00:56 | 51.12941 | -114.00626 | 3558 ft | 4 kts | 44° |
| 2026-05-05 00:56 | 51.12924 | -114.00640 | 3558 ft | 3 kts | 0° |
| 2026-05-05 00:56 | 51.12897 | -114.00641 | 3558 ft | 4 kts | 1° |
| 2026-05-05 00:57 | 51.12870 | -114.00641 | 3556 ft | 4 kts | 1° |
| 2026-05-05 00:57 | 51.12843 | -114.00642 | 3556 ft | 4 kts | 1° |
| 2026-05-05 00:57 | 51.12816 | -114.00644 | 3556 ft | 4 kts | 1° |
| 2026-05-05 00:57 | 51.12789 | -114.00645 | 3556 ft | 4 kts | 1° |
| 2026-05-05 00:58 | 51.12762 | -114.00645 | 3558 ft | 4 kts | 358° |
| 2026-05-05 00:58 | 51.12737 | -114.00642 | 3556 ft | 4 kts | 349° |
| 2026-05-05 00:58 | 51.12714 | -114.00627 | 3554 ft | 4 kts | 314° |
| 2026-05-05 00:58 | 51.12701 | -114.00592 | 3557 ft | 4 kts | 279° |
| 2026-05-05 00:59 | 51.12700 | -114.00550 | 3553 ft | 4 kts | 266° |
| 2026-05-05 00:59 | 51.12701 | -114.00517 | 3553 ft | 0 kts | 270° |
| 2026-05-05 01:01 | 51.12701 | -114.00553 | 3558 ft | 9 kts | 270° |
| 2026-05-05 01:01 | 51.12667 | -114.00634 | 3558 ft | 9 kts | 202° |
| 2026-05-05 01:01 | 51.12616 | -114.00683 | 3557 ft | 9 kts | 247° |
| 2026-05-05 01:02 | 51.12614 | -114.00784 | 3558 ft | 12 kts | 270° |
| 2026-05-05 01:02 | 51.12614 | -114.00942 | 3558 ft | 14 kts | 270° |
| 2026-05-05 01:02 | 51.12610 | -114.01092 | 3555 ft | 14 kts | 264° |
| 2026-05-05 01:02 | 51.12603 | -114.01240 | 3558 ft | 13 kts | 270° |
| 2026-05-05 01:03 | 51.12603 | -114.01383 | 3558 ft | 13 kts | 270° |
| 2026-05-05 01:03 | 51.12603 | -114.01519 | 3558 ft | 12 kts | 269° |
| 2026-05-05 01:03 | 51.12602 | -114.01651 | 3558 ft | 12 kts | 269° |
| 2026-05-05 01:03 | 51.12584 | -114.01770 | 3558 ft | 12 kts | 221° |
| 2026-05-05 01:04 | 51.12506 | -114.01796 | 3558 ft | 11 kts | 180° |
| 2026-05-05 01:04 | 51.12350 | -114.01797 | 3558 ft | 11 kts | 180° |
| 2026-05-05 01:04 | 51.12276 | -114.01797 | 3558 ft | 11 kts | 180° |
| 2026-05-05 01:05 | 51.12203 | -114.01798 | 3558 ft | 10 kts | 180° |
| 2026-05-05 01:05 | 51.12133 | -114.01799 | 3558 ft | 10 kts | 179° |
| 2026-05-05 01:05 | 51.12065 | -114.01795 | 3559 ft | 10 kts | 180° |
| 2026-05-05 01:05 | 51.11996 | -114.01797 | 3557 ft | 11 kts | 181° |
| 2026-05-05 01:06 | 51.11910 | -114.01796 | 3558 ft | 14 kts | 179° |
| 2026-05-05 01:06 | 51.11800 | -114.01796 | 3558 ft | 18 kts | 180° |
| 2026-05-05 01:06 | 51.11668 | -114.01796 | 3558 ft | 20 kts | 180° |
| 2026-05-05 01:06 | 51.11518 | -114.01797 | 3558 ft | 23 kts | 180° |
| 2026-05-05 01:07 | 51.11357 | -114.01797 | 3558 ft | 23 kts | 180° |
| 2026-05-05 01:07 | 51.11204 | -114.01798 | 3558 ft | 22 kts | 180° |
| 2026-05-05 01:07 | 51.11052 | -114.01797 | 3558 ft | 21 kts | 180° |
| 2026-05-05 01:07 | 51.10910 | -114.01796 | 3558 ft | 21 kts | 180° |
| 2026-05-05 01:08 | 51.10768 | -114.01798 | 3558 ft | 20 kts | 180° |
| 2026-05-05 01:08 | 51.10631 | -114.01800 | 3558 ft | 16 kts | 180° |
| 2026-05-05 01:08 | 51.10588 | -114.01927 | 3557 ft | 15 kts | 295° |
| 2026-05-05 01:08 | 51.10668 | -114.02015 | 3554 ft | 15 kts | 330° |
| 2026-05-05 01:09 | 51.10752 | -114.02093 | 3558 ft | 14 kts | 330° |
| 2026-05-05 01:09 | 51.10842 | -114.02138 | 3560 ft | 13 kts | 357° |
| 2026-05-05 01:09 | 51.10951 | -114.02136 | 3561 ft | 29 kts | 0° |
| 2026-05-05 01:09 | 51.11399 | -114.02137 | 3555 ft | 98 kts | 360° |
| 2026-05-05 01:10 | 51.12255 | -114.02114 | 3619 ft | 144 kts | 2° |
| 2026-05-05 01:10 | 51.13116 | -114.02077 | 4046 ft | 157 kts | 3° |
| 2026-05-05 01:10 | 51.14142 | -114.02011 | 4695 ft | 166 kts | 3° |
| 2026-05-05 01:10 | 51.15255 | -114.01464 | 5332 ft | 181 kts | 36° |
| 2026-05-05 01:11 | 51.15884 | -113.99551 | 5575 ft | 219 kts | 81° |
| 2026-05-05 01:11 | 51.15686 | -113.97012 | 5931 ft | 241 kts | 98° |
| 2026-05-05 01:11 | 51.15285 | -113.94356 | 6317 ft | 257 kts | 99° |
| 2026-05-05 01:11 | 51.14840 | -113.91506 | 6730 ft | 275 kts | 99° |
| 2026-05-05 01:12 | 51.14370 | -113.88476 | 7340 ft | 286 kts | 99° |
| 2026-05-05 01:12 | 51.13896 | -113.85379 | 8291 ft | 290 kts | 99° |
| 2026-05-05 01:12 | 51.13420 | -113.82223 | 9249 ft | 294 kts | 99° |
| 2026-05-05 01:12 | 51.12944 | -113.79029 | 10192 ft | 299 kts | 99° |
| 2026-05-05 01:13 | 51.12454 | -113.75693 | 10663 ft | 323 kts | 99° |
| 2026-05-05 01:13 | 51.11928 | -113.72085 | 11100 ft | 343 kts | 99° |
| 2026-05-05 01:13 | 51.11387 | -113.68397 | 11929 ft | 349 kts | 98° |
| 2026-05-05 01:13 | 51.10829 | -113.64600 | 12782 ft | 356 kts | 98° |
| 2026-05-05 01:14 | 51.10260 | -113.60730 | 13655 ft | 363 kts | 97° |
| 2026-05-05 01:14 | 51.09682 | -113.56800 | 14453 ft | 370 kts | 97° |
| 2026-05-05 01:14 | 51.09095 | -113.52817 | 15226 ft | 378 kts | 96° |
| 2026-05-05 01:14 | 51.08489 | -113.48705 | 16020 ft | 385 kts | 96° |
| 2026-05-05 01:15 | 51.07870 | -113.44523 | 16834 ft | 393 kts | 96° |
| 2026-05-05 01:15 | 51.07237 | -113.40249 | 17623 ft | 400 kts | 95° |
| 2026-05-05 01:15 | 51.06735 | -113.35870 | 18401 ft | 401 kts | 87° |
| 2026-05-05 01:15 | 51.06487 | -113.31446 | 19171 ft | 403 kts | 84° |
| 2026-05-05 01:16 | 51.06276 | -113.26976 | 19938 ft | 408 kts | 84° |
| 2026-05-05 01:16 | 51.06037 | -113.22455 | 20732 ft | 412 kts | 84° |
| 2026-05-05 01:16 | 51.05757 | -113.17896 | 21522 ft | 417 kts | 85° |
| 2026-05-05 01:16 | 51.05441 | -113.13283 | 22261 ft | 422 kts | 85° |
| 2026-05-05 01:17 | 51.05111 | -113.08657 | 22957 ft | 428 kts | 85° |
| 2026-05-05 01:17 | 51.04769 | -113.03938 | 23677 ft | 432 kts | 85° |
| 2026-05-05 01:17 | 51.04423 | -112.99181 | 24289 ft | 436 kts | 85° |
| 2026-05-05 01:17 | 51.04074 | -112.94377 | 24928 ft | 438 kts | 85° |
| 2026-05-05 01:18 | 51.03728 | -112.89634 | 25538 ft | 440 kts | 85° |
| 2026-05-05 01:18 | 51.03375 | -112.84789 | 26152 ft | 443 kts | 85° |
| 2026-05-05 01:18 | 51.03020 | -112.79905 | 26729 ft | 446 kts | 85° |
| 2026-05-05 01:18 | 51.02661 | -112.74977 | 27338 ft | 451 kts | 84° |
| 2026-05-05 01:19 | 51.02299 | -112.70016 | 27846 ft | 455 kts | 84° |
| 2026-05-05 01:19 | 51.01928 | -112.64991 | 28411 ft | 458 kts | 84° |
| 2026-05-05 01:19 | 51.01552 | -112.59955 | 28952 ft | 461 kts | 84° |
| 2026-05-05 01:19 | 51.01173 | -112.54909 | 29489 ft | 464 kts | 84° |
| 2026-05-05 01:20 | 51.00789 | -112.49817 | 30006 ft | 466 kts | 84° |
| 2026-05-05 01:20 | 51.00400 | -112.44698 | 30467 ft | 469 kts | 85° |
| 2026-05-05 01:20 | 51.00005 | -112.39530 | 30882 ft | 471 kts | 85° |
| 2026-05-05 01:20 | 50.99607 | -112.34378 | 31413 ft | 470 kts | 85° |
| 2026-05-05 01:21 | 50.99225 | -112.29479 | 31989 ft | 467 kts | 85° |
| 2026-05-05 01:21 | 50.98842 | -112.24595 | 32547 ft | 465 kts | 85° |
| 2026-05-05 01:21 | 50.98526 | -112.20552 | 32985 ft | 465 kts | 86° |
| 2026-05-05 01:21 | 50.98275 | -112.17328 | 33219 ft | 467 kts | 86° |
| 2026-05-05 01:22 | 50.97995 | -112.13735 | 33490 ft | 467 kts | 86° |
| 2026-05-05 01:22 | 50.97780 | -112.10996 | 33755 ft | 466 kts | 86° |
| 2026-05-05 01:22 | 50.97516 | -112.07771 | 34046 ft | 468 kts | 88° |
| 2026-05-05 01:22 | 50.97281 | -112.05188 | 34252 ft | 467 kts | 88° |
| 2026-05-05 01:23 | 50.97032 | -112.02211 | 34493 ft | 465 kts | 87° |
| 2026-05-05 01:23 | 50.96823 | -111.99617 | 34643 ft | 467 kts | 88° |
| 2026-05-05 01:23 | 50.96127 | -111.91651 | 35096 ft | 468 kts | 87° |
| 2026-05-05 01:24 | 50.95587 | -111.84333 | 35149 ft | 470 kts | 87° |
| 2026-05-05 01:24 | 50.94911 | -111.76226 | 35222 ft | 469 kts | 87° |
| 2026-05-05 01:25 | 50.94428 | -111.69950 | 35172 ft | 468 kts | 87° |
| 2026-05-05 01:25 | 50.93835 | -111.62333 | 35190 ft | 466 kts | 88° |
| 2026-05-05 01:26 | 50.93318 | -111.56115 | 35119 ft | 464 kts | 88° |
| 2026-05-05 01:26 | 50.92634 | -111.48428 | 35123 ft | 461 kts | 87° |
| 2026-05-05 01:27 | 50.92235 | -111.38381 | 35127 ft | 455 kts | 83° |
| 2026-05-05 01:27 | 50.91986 | -111.28355 | 35131 ft | 456 kts | 83° |
| 2026-05-05 01:28 | 50.91731 | -111.19053 | 35131 ft | 458 kts | 83° |
| 2026-05-05 01:28 | 50.91513 | -111.11690 | 35156 ft | 460 kts | 84° |
| 2026-05-05 01:29 | 50.91315 | -111.05135 | 35129 ft | 461 kts | 85° |
| 2026-05-05 01:29 | 50.91098 | -110.99174 | 35137 ft | 462 kts | 85° |
| 2026-05-05 01:30 | 50.90826 | -110.92050 | 35133 ft | 463 kts | 84° |
| 2026-05-05 01:30 | 50.90497 | -110.81998 | 35133 ft | 463 kts | 84° |
| 2026-05-05 01:31 | 50.90238 | -110.74264 | 35125 ft | 463 kts | 85° |
| 2026-05-05 01:31 | 50.89992 | -110.67449 | 35124 ft | 463 kts | 85° |
| 2026-05-05 01:32 | 50.89690 | -110.59105 | 35134 ft | 464 kts | 85° |
| 2026-05-05 01:32 | 50.89441 | -110.52613 | 35137 ft | 464 kts | 87° |
| 2026-05-05 01:33 | 50.89123 | -110.44747 | 35134 ft | 462 kts | 85° |
| 2026-05-05 01:33 | 50.88824 | -110.36881 | 35125 ft | 461 kts | 85° |
| 2026-05-05 01:34 | 50.88502 | -110.27758 | 35135 ft | 461 kts | 85° |
| 2026-05-05 01:34 | 50.88234 | -110.20801 | 35132 ft | 460 kts | 86° |
| 2026-05-05 01:35 | 50.87840 | -110.10773 | 35166 ft | 460 kts | 86° |
| 2026-05-05 01:35 | 50.87552 | -110.03644 | 35132 ft | 461 kts | 87° |
| 2026-05-05 01:36 | 50.87247 | -109.95538 | 35127 ft | 459 kts | 85° |
| 2026-05-05 01:36 | 50.87049 | -109.85459 | 35129 ft | 457 kts | 84° |
| 2026-05-05 01:37 | 50.86889 | -109.75411 | 35127 ft | 457 kts | 84° |
| 2026-05-05 01:37 | 50.86700 | -109.65355 | 35129 ft | 457 kts | 85° |
| 2026-05-05 01:38 | 50.86485 | -109.55345 | 35131 ft | 458 kts | 86° |
| 2026-05-05 01:38 | 50.86255 | -109.45258 | 35134 ft | 458 kts | 86° |
| 2026-05-05 01:39 | 50.86030 | -109.35783 | 35129 ft | 458 kts | 86° |
| 2026-05-05 01:39 | 50.85800 | -109.26426 | 35120 ft | 458 kts | 86° |
| 2026-05-05 01:40 | 50.85554 | -109.16706 | 35126 ft | 458 kts | 86° |
| 2026-05-05 01:40 | 50.85292 | -109.06609 | 35136 ft | 459 kts | 86° |
| 2026-05-05 01:41 | 50.85020 | -108.96524 | 35130 ft | 459 kts | 86° |
| 2026-05-05 01:41 | 50.84743 | -108.86579 | 35123 ft | 458 kts | 87° |
| 2026-05-05 01:42 | 50.84460 | -108.76718 | 35115 ft | 457 kts | 87° |
| 2026-05-05 01:42 | 50.84165 | -108.66727 | 35114 ft | 457 kts | 87° |
| 2026-05-05 01:43 | 50.83860 | -108.56701 | 35118 ft | 457 kts | 87° |
| 2026-05-05 01:43 | 50.83547 | -108.46651 | 35112 ft | 457 kts | 87° |
| 2026-05-05 01:44 | 50.83232 | -108.36841 | 35117 ft | 458 kts | 87° |
| 2026-05-05 01:44 | 50.82903 | -108.26853 | 35101 ft | 459 kts | 87° |
| 2026-05-05 01:45 | 50.82562 | -108.16764 | 35113 ft | 459 kts | 87° |
| 2026-05-05 01:45 | 50.82329 | -108.10037 | 35142 ft | 460 kts | 88° |
| 2026-05-05 01:47 | 50.82280 | -108.08641 | 35132 ft | 460 kts | 88° |
| 2026-05-05 01:47 | 50.81921 | -107.98510 | 35111 ft | 460 kts | 88° |
| 2026-05-05 01:48 | 50.81555 | -107.88408 | 35097 ft | 459 kts | 88° |
| 2026-05-05 01:48 | 50.81181 | -107.78340 | 35099 ft | 458 kts | 88° |
| 2026-05-05 01:49 | 50.80801 | -107.68345 | 35099 ft | 457 kts | 88° |
| 2026-05-05 01:49 | 50.80411 | -107.58317 | 35130 ft | 457 kts | 89° |
| 2026-05-05 01:50 | 50.80013 | -107.48289 | 35109 ft | 457 kts | 89° |
| 2026-05-05 01:50 | 50.79606 | -107.38255 | 35100 ft | 457 kts | 89° |
| 2026-05-05 01:51 | 50.79191 | -107.28224 | 35098 ft | 457 kts | 89° |
| 2026-05-05 01:51 | 50.78767 | -107.18206 | 35096 ft | 457 kts | 89° |
| 2026-05-05 01:52 | 50.78334 | -107.08189 | 35124 ft | 456 kts | 89° |
| 2026-05-05 01:52 | 50.77893 | -106.98165 | 35107 ft | 457 kts | 89° |
| 2026-05-05 01:53 | 50.77446 | -106.88200 | 35099 ft | 458 kts | 89° |
| 2026-05-05 01:53 | 50.76986 | -106.78154 | 35096 ft | 458 kts | 90° |
| 2026-05-05 01:54 | 50.76518 | -106.68108 | 35093 ft | 458 kts | 90° |
| 2026-05-05 01:54 | 50.76041 | -106.58072 | 35120 ft | 458 kts | 90° |
| 2026-05-05 01:55 | 50.75555 | -106.48038 | 35089 ft | 458 kts | 90° |
| 2026-05-05 01:55 | 50.75061 | -106.38006 | 35083 ft | 457 kts | 90° |
| 2026-05-05 01:56 | 50.74562 | -106.28044 | 35079 ft | 457 kts | 90° |
| 2026-05-05 01:56 | 50.74053 | -106.18050 | 35080 ft | 456 kts | 90° |
| 2026-05-05 01:57 | 50.73536 | -106.08068 | 35094 ft | 457 kts | 90° |
| 2026-05-05 01:57 | 50.73009 | -105.98065 | 35077 ft | 457 kts | 90° |
| 2026-05-05 01:58 | 50.72473 | -105.88060 | 35064 ft | 457 kts | 90° |
| 2026-05-05 01:58 | 50.71927 | -105.78041 | 35065 ft | 458 kts | 91° |
| 2026-05-05 01:59 | 50.71374 | -105.68030 | 35062 ft | 458 kts | 91° |
| 2026-05-05 01:59 | 50.70811 | -105.58003 | 35093 ft | 459 kts | 91° |
| 2026-05-05 02:00 | 50.70242 | -105.48024 | 35063 ft | 460 kts | 91° |
| 2026-05-05 02:00 | 50.69659 | -105.37957 | 35058 ft | 460 kts | 91° |
| 2026-05-05 02:01 | 50.69067 | -105.27893 | 35047 ft | 460 kts | 91° |
| 2026-05-05 02:01 | 50.68467 | -105.17825 | 35045 ft | 460 kts | 91° |
| 2026-05-05 02:02 | 50.67858 | -105.07770 | 35057 ft | 460 kts | 91° |
| 2026-05-05 02:02 | 50.67243 | -104.97718 | 35043 ft | 460 kts | 91° |
| 2026-05-05 02:03 | 50.66589 | -104.87731 | 35034 ft | 462 kts | 95° |
| 2026-05-05 02:03 | 50.65387 | -104.77764 | 35038 ft | 463 kts | 98° |
| 2026-05-05 02:04 | 50.64000 | -104.67837 | 35009 ft | 464 kts | 98° |
| 2026-05-05 02:04 | 50.62638 | -104.57968 | 35038 ft | 464 kts | 98° |
| 2026-05-05 02:05 | 50.61296 | -104.48017 | 34990 ft | 464 kts | 98° |
| 2026-05-05 02:05 | 50.59962 | -104.38060 | 34985 ft | 465 kts | 98° |
| 2026-05-05 02:06 | 50.58622 | -104.28106 | 34993 ft | 465 kts | 98° |
| 2026-05-05 02:06 | 50.57269 | -104.18134 | 34995 ft | 465 kts | 98° |
| 2026-05-05 02:07 | 50.55917 | -104.08247 | 34998 ft | 465 kts | 98° |
| 2026-05-05 02:07 | 50.54547 | -103.98300 | 34997 ft | 465 kts | 99° |
| 2026-05-05 02:08 | 50.53168 | -103.88357 | 34990 ft | 465 kts | 99° |
| 2026-05-05 02:08 | 50.51783 | -103.78435 | 34994 ft | 464 kts | 99° |
| 2026-05-05 02:09 | 50.50392 | -103.68532 | 34987 ft | 464 kts | 99° |
| 2026-05-05 02:09 | 50.48990 | -103.58618 | 34988 ft | 465 kts | 99° |
| 2026-05-05 02:10 | 50.47587 | -103.48763 | 34988 ft | 465 kts | 99° |